createdAt,value
2017-07-04T00:00:32.225Z,1015.3
2017-07-04T00:03:03.925Z,1015.2
2017-07-04T00:05:35.654Z,1015.3
2017-07-04T00:08:07.358Z,1015.2
2017-07-04T00:10:39.077Z,1015.2
2017-07-04T00:13:10.763Z,1015.3
2017-07-04T00:15:42.488Z,1015.3
2017-07-04T00:18:14.176Z,1015.2
2017-07-04T00:20:45.883Z,1015.2
2017-07-04T00:23:17.567Z,1015.2
2017-07-04T00:25:49.286Z,1015.2
2017-07-04T00:28:20.971Z,1015.1
2017-07-04T00:30:52.690Z,1015.2
2017-07-04T00:33:24.382Z,1015.2
2017-07-04T00:35:56.097Z,1015.2
2017-07-04T00:38:27.788Z,1015.2
2017-07-04T00:40:59.501Z,1015.2
2017-07-04T00:43:31.206Z,1015.2
2017-07-04T00:46:02.921Z,1015.2
2017-07-04T00:48:34.612Z,1015.1
2017-07-04T00:51:06.328Z,1015.1
2017-07-04T00:53:38.013Z,1015.0
2017-07-04T00:56:09.721Z,1015.0
2017-07-04T00:58:41.403Z,1015.0
2017-07-04T01:01:13.117Z,1015.0
2017-07-04T01:03:44.801Z,1015.0
2017-07-04T01:06:16.518Z,1014.9
2017-07-04T01:08:48.203Z,1015.0
2017-07-04T01:11:19.921Z,1015.0
2017-07-04T01:13:51.613Z,1015.0
2017-07-04T01:16:23.325Z,1015.0
2017-07-04T01:18:55.009Z,1015.0
2017-07-04T01:21:26.726Z,1015.0
2017-07-04T01:23:58.410Z,1015.0
2017-07-04T01:26:30.125Z,1015.1
2017-07-04T01:29:01.815Z,1015.1
2017-07-04T01:31:33.530Z,1015.1
2017-07-04T01:34:05.220Z,1015.0
2017-07-04T01:36:36.943Z,1015.0
2017-07-04T01:39:08.645Z,1015.1
2017-07-04T01:41:40.382Z,1015.1
2017-07-04T01:44:12.076Z,1015.1
2017-07-04T01:46:43.793Z,1015.1
2017-07-04T01:49:15.483Z,1015.1
2017-07-04T01:51:47.196Z,1015.0
2017-07-04T01:54:18.885Z,1015.0
2017-07-04T01:56:50.593Z,1015.1
2017-07-04T01:59:22.287Z,1015.1
2017-07-04T02:01:54.022Z,1015.1
2017-07-04T02:04:25.718Z,1015.1
2017-07-04T02:06:57.441Z,1015.1
2017-07-04T02:09:29.136Z,1015.0
2017-07-04T02:12:00.872Z,1015.1
2017-07-04T02:14:32.563Z,1015.1
2017-07-04T02:17:04.277Z,1015.0
2017-07-04T02:19:35.965Z,1015.1
2017-07-04T02:22:07.686Z,1015.1
2017-07-04T02:24:39.368Z,1015.1
2017-07-04T02:27:11.092Z,1015.1
2017-07-04T02:29:42.795Z,1015.1
2017-07-04T02:32:14.538Z,1015.0
2017-07-04T02:34:46.246Z,1015.1
2017-07-04T02:37:17.988Z,1015.1
2017-07-04T02:39:49.671Z,1015.1
2017-07-04T02:42:21.389Z,1015.1
2017-07-04T02:44:53.072Z,1015.1
2017-07-04T02:47:24.784Z,1015.1
2017-07-04T02:49:56.475Z,1015.2
2017-07-04T02:52:28.203Z,1015.2
2017-07-04T02:54:59.893Z,1015.2
2017-07-04T02:57:31.615Z,1015.2
2017-07-04T03:00:03.300Z,1015.3
2017-07-04T03:02:35.010Z,1015.3
2017-07-04T03:05:06.713Z,1015.3
2017-07-04T03:07:38.432Z,1015.3
2017-07-04T03:10:10.117Z,1015.4
2017-07-04T03:12:41.837Z,1015.4
2017-07-04T03:15:13.539Z,1015.4
2017-07-04T03:17:45.260Z,1015.4
2017-07-04T03:20:16.957Z,1015.5
2017-07-04T03:22:48.672Z,1015.5
2017-07-04T03:25:20.363Z,1015.5
2017-07-04T03:27:52.086Z,1015.5
2017-07-04T03:30:23.784Z,1015.4
2017-07-04T03:32:55.504Z,1015.3
2017-07-04T03:35:27.191Z,1015.3
2017-07-04T03:37:58.915Z,1015.3
2017-07-04T03:40:30.609Z,1015.3
2017-07-04T03:43:02.338Z,1015.3
2017-07-04T03:45:34.031Z,1015.2
2017-07-04T03:48:05.752Z,1015.3
2017-07-04T03:50:37.451Z,1015.2
2017-07-04T03:53:09.169Z,1015.2
2017-07-04T03:55:40.854Z,1015.3
2017-07-04T03:58:12.575Z,1015.3
2017-07-04T04:00:44.278Z,1015.3
2017-07-04T04:03:16.030Z,1015.3
2017-07-04T04:05:47.743Z,1015.3
2017-07-04T04:08:19.478Z,1015.3
2017-07-04T04:10:51.176Z,1015.4
2017-07-04T04:13:22.925Z,1015.4
2017-07-04T04:15:54.604Z,1015.4
2017-07-04T04:18:26.319Z,1015.4
2017-07-04T04:20:58.006Z,1015.5
2017-07-04T04:23:29.723Z,1015.5
2017-07-04T04:26:01.419Z,1015.6
2017-07-04T04:28:33.134Z,1015.6
2017-07-04T04:31:04.827Z,1015.7
2017-07-04T04:33:36.544Z,1015.7
2017-07-04T04:36:08.239Z,1015.8
2017-07-04T04:38:39.977Z,1015.7
2017-07-04T04:41:11.673Z,1015.6
2017-07-04T04:43:43.419Z,1015.7
2017-07-04T04:46:15.109Z,1015.7
2017-07-04T04:48:46.828Z,1015.7
2017-07-04T04:51:18.638Z,1015.8
2017-07-04T04:53:50.361Z,1015.8
2017-07-04T04:56:22.057Z,1015.7
2017-07-04T04:58:53.774Z,1015.7
2017-07-04T05:01:25.469Z,1015.7
2017-07-04T05:03:57.189Z,1015.7
2017-07-04T05:06:28.878Z,1015.7
2017-07-04T05:09:00.602Z,1015.8
2017-07-04T05:11:32.292Z,1015.8
2017-07-04T05:14:04.010Z,1015.8
2017-07-04T05:16:35.699Z,1015.8
2017-07-04T05:19:07.450Z,1015.9
2017-07-04T05:21:39.143Z,1015.9
2017-07-04T05:24:10.867Z,1015.9
2017-07-04T05:26:42.558Z,1016.0
2017-07-04T05:29:14.309Z,1015.9
2017-07-04T05:31:45.999Z,1016.0
2017-07-04T05:34:17.719Z,1016.0
2017-07-04T05:36:49.411Z,1015.9
2017-07-04T05:39:21.131Z,1015.9
2017-07-04T05:41:52.816Z,1015.9
2017-07-04T05:44:24.534Z,1015.9
2017-07-04T05:46:56.229Z,1016.0
2017-07-04T05:49:27.947Z,1015.9
2017-07-04T05:51:59.641Z,1015.9
2017-07-04T05:54:31.364Z,1015.9
2017-07-04T05:57:03.053Z,1015.9
2017-07-04T05:59:34.778Z,1015.9
2017-07-04T06:02:06.471Z,1016.0
2017-07-04T06:04:38.190Z,1016.0
2017-07-04T06:07:09.883Z,1016.0
2017-07-04T06:09:41.610Z,1016.0
2017-07-04T06:12:13.296Z,1016.0
2017-07-04T06:14:45.016Z,1016.0
2017-07-04T06:17:16.705Z,1015.9
2017-07-04T06:19:48.440Z,1016.0
2017-07-04T06:22:20.131Z,1016.0
2017-07-04T06:24:51.853Z,1015.9
2017-07-04T06:27:23.546Z,1015.9
2017-07-04T06:29:55.268Z,1016.0
2017-07-04T06:32:26.964Z,1016.0
2017-07-04T06:34:58.702Z,1016.0
2017-07-04T06:37:30.398Z,1016.0
2017-07-04T06:40:02.134Z,1016.1
2017-07-04T06:42:33.830Z,1016.1
2017-07-04T06:45:05.553Z,1016.1
2017-07-04T06:47:37.248Z,1016.0
2017-07-04T06:50:08.983Z,1016.1
2017-07-04T06:52:40.673Z,1016.1
2017-07-04T06:55:12.404Z,1016.2
2017-07-04T06:57:44.111Z,1016.2
2017-07-04T07:00:15.825Z,1016.2
2017-07-04T07:02:47.516Z,1016.2
2017-07-04T07:05:19.243Z,1016.3
2017-07-04T07:07:50.931Z,1016.2
2017-07-04T07:10:22.654Z,1016.2
2017-07-04T07:12:54.347Z,1016.2
2017-07-04T07:15:26.064Z,1016.2
2017-07-04T07:17:57.765Z,1016.2
2017-07-04T07:20:29.483Z,1016.2
2017-07-04T07:23:01.175Z,1016.2
2017-07-04T07:25:32.900Z,1016.2
2017-07-04T07:28:04.597Z,1016.2
2017-07-04T07:30:36.334Z,1016.2
2017-07-04T07:33:08.036Z,1016.3
2017-07-04T07:35:39.765Z,1016.2
2017-07-04T07:38:11.465Z,1016.3
2017-07-04T07:40:43.210Z,1016.3
2017-07-04T07:43:14.914Z,1016.4
2017-07-04T07:45:46.651Z,1016.4
2017-07-04T07:48:18.354Z,1016.4
2017-07-04T07:50:50.087Z,1016.4
2017-07-04T07:53:21.794Z,1016.4
2017-07-04T07:55:53.527Z,1016.5
2017-07-04T07:58:25.236Z,1016.5
2017-07-04T08:00:56.962Z,1016.5
2017-07-04T08:03:28.669Z,1016.5
2017-07-04T08:06:00.421Z,1016.5
2017-07-04T08:08:32.146Z,1016.4
2017-07-04T08:11:03.877Z,1016.4
2017-07-04T08:13:35.586Z,1016.4
2017-07-04T08:16:07.328Z,1016.4
2017-07-04T08:18:39.026Z,1016.4
2017-07-04T08:21:10.746Z,1016.4
2017-07-04T08:23:42.435Z,1016.4
2017-07-04T08:26:14.163Z,1016.4
2017-07-04T08:28:45.868Z,1016.4
2017-07-04T08:31:17.611Z,1016.4
2017-07-04T08:33:49.313Z,1016.3
2017-07-04T08:36:21.037Z,1016.4
2017-07-04T08:38:52.747Z,1016.4
2017-07-04T08:41:24.481Z,1016.4
2017-07-04T08:43:56.214Z,1016.4
2017-07-04T08:46:27.918Z,1016.4
2017-07-04T08:48:59.611Z,1016.5
2017-07-04T08:51:31.335Z,1016.4
2017-07-04T08:54:03.024Z,1016.5
2017-07-04T08:56:34.760Z,1016.5
2017-07-04T08:59:06.453Z,1016.5
2017-07-04T09:01:38.205Z,1016.4
2017-07-04T09:04:09.900Z,1016.4
2017-07-04T09:06:41.622Z,1016.4
2017-07-04T09:09:13.322Z,1016.4
2017-07-04T09:11:45.052Z,1016.5
2017-07-04T09:14:16.741Z,1016.5
2017-07-04T09:16:48.463Z,1016.5
2017-07-04T09:19:20.154Z,1016.5
2017-07-04T09:21:51.889Z,1016.4
2017-07-04T09:24:23.589Z,1016.4
2017-07-04T09:26:55.337Z,1016.3
2017-07-04T09:29:27.032Z,1016.4
2017-07-04T09:31:58.747Z,1016.3
2017-07-04T09:34:30.440Z,1016.4
2017-07-04T09:37:02.172Z,1016.3
2017-07-04T09:39:33.864Z,1016.3
2017-07-04T09:42:05.601Z,1016.3
2017-07-04T09:44:37.296Z,1016.4
2017-07-04T09:47:09.048Z,1016.4
2017-07-04T09:49:40.749Z,1016.3
2017-07-04T09:52:12.482Z,1016.4
2017-07-04T09:54:44.198Z,1016.4
2017-07-04T09:57:15.941Z,1016.3
2017-07-04T09:59:47.645Z,1016.4
2017-07-04T10:02:19.381Z,1016.4
2017-07-04T10:04:51.075Z,1016.4
2017-07-04T10:07:22.802Z,1016.4
2017-07-04T10:09:54.518Z,1016.3
2017-07-04T10:12:26.257Z,1016.4
2017-07-04T10:14:57.967Z,1016.4
2017-07-04T10:17:29.688Z,1016.4
2017-07-04T10:20:01.386Z,1016.4
2017-07-04T10:22:33.145Z,1016.3
2017-07-04T10:25:04.829Z,1016.3
2017-07-04T10:27:36.555Z,1016.3
2017-07-04T10:30:08.256Z,1016.3
2017-07-04T10:32:39.997Z,1016.3
2017-07-04T10:35:11.695Z,1016.2
2017-07-04T10:37:43.427Z,1016.2
2017-07-04T10:40:15.125Z,1016.1
2017-07-04T10:42:46.875Z,1016.2
2017-07-04T10:45:18.585Z,1016.1
2017-07-04T10:47:50.317Z,1016.1
2017-07-04T10:50:22.011Z,1016.1
2017-07-04T10:52:53.738Z,1016.2
2017-07-04T10:55:25.432Z,1016.1
2017-07-04T10:57:57.163Z,1016.1
2017-07-04T11:00:28.853Z,1016.1
2017-07-04T11:03:00.594Z,1016.1
2017-07-04T11:05:32.285Z,1016.0
2017-07-04T11:08:04.007Z,1016.0
2017-07-04T11:10:35.701Z,1016.0
2017-07-04T11:13:07.433Z,1016.0
2017-07-04T11:15:39.130Z,1016.0
2017-07-04T11:18:10.859Z,1016.0
2017-07-04T11:20:42.559Z,1016.0
2017-07-04T11:23:14.301Z,1016.0
2017-07-04T11:25:46.018Z,1015.9
2017-07-04T11:28:17.749Z,1015.9
2017-07-04T11:30:49.464Z,1015.9
2017-07-04T11:33:21.184Z,1015.9
2017-07-04T11:35:53.090Z,1015.9
2017-07-04T11:38:24.929Z,1015.9
2017-07-04T11:40:56.640Z,1015.9
2017-07-04T11:43:28.376Z,1015.9
2017-07-04T11:46:00.072Z,1015.9
2017-07-04T11:48:31.878Z,1015.9
2017-07-04T11:51:03.672Z,1015.9
2017-07-04T11:53:35.428Z,1015.9
2017-07-04T11:56:07.159Z,1015.9
2017-07-04T11:58:38.933Z,1015.8
2017-07-04T12:01:10.665Z,1015.8
2017-07-04T12:03:43.274Z,1015.8
2017-07-04T12:06:15.024Z,1015.8
2017-07-04T12:08:47.645Z,1015.8
2017-07-04T12:11:20.924Z,1015.8
2017-07-04T12:13:52.910Z,1015.8
2017-07-04T12:16:24.607Z,1015.8
2017-07-04T12:18:56.336Z,1015.7
2017-07-04T12:21:28.748Z,1015.7
2017-07-04T12:24:00.735Z,1015.6
2017-07-04T12:26:32.436Z,1015.6
2017-07-04T12:29:04.198Z,1015.6
2017-07-04T12:31:35.903Z,1015.6
2017-07-04T12:34:07.628Z,1015.6
2017-07-04T12:36:39.440Z,1015.6
2017-07-04T12:39:11.168Z,1015.6
2017-07-04T12:41:43.586Z,1015.5
2017-07-04T12:44:15.574Z,1015.5
2017-07-04T12:46:47.274Z,1015.5
2017-07-04T12:49:19.569Z,1015.5
2017-07-04T12:51:51.807Z,1015.5
2017-07-04T12:54:23.784Z,1015.5
2017-07-04T12:56:56.090Z,1015.5
2017-07-04T12:59:28.102Z,1015.5
2017-07-04T13:01:59.799Z,1015.5
2017-07-04T13:04:31.529Z,1015.5
2017-07-04T13:07:03.683Z,1015.4
2017-07-04T13:09:35.540Z,1015.4
2017-07-04T13:12:07.754Z,1015.4
2017-07-04T13:14:39.506Z,1015.4
2017-07-04T13:17:11.337Z,1015.4
2017-07-04T13:19:43.070Z,1015.3
2017-07-04T13:22:14.883Z,1015.4
2017-07-04T13:24:47.656Z,1015.3
2017-07-04T13:27:19.358Z,1015.2
2017-07-04T13:29:55.108Z,1015.2
2017-07-04T13:32:23.417Z,1015.2
2017-07-04T13:34:56.385Z,1015.2
2017-07-04T13:37:28.116Z,1015.2
2017-07-04T13:40:00.106Z,1015.2
2017-07-04T13:42:32.767Z,1015.2
2017-07-04T13:45:04.810Z,1015.2
2017-07-04T13:47:36.750Z,1015.2
2017-07-04T13:50:08.574Z,1015.2
2017-07-04T13:52:40.272Z,1015.1
2017-07-04T13:55:12.786Z,1015.1
2017-07-04T13:57:44.489Z,1015.1
2017-07-04T14:00:16.329Z,1015.1
2017-07-04T14:02:49.106Z,1015.0
2017-07-04T14:05:20.908Z,1015.0
2017-07-04T14:07:52.604Z,1015.0
2017-07-04T14:10:24.439Z,1015.0
2017-07-04T14:12:56.136Z,1015.0
2017-07-04T14:15:28.021Z,1015.0
2017-07-04T14:17:59.755Z,1015.0
2017-07-04T14:20:31.501Z,1014.9
2017-07-04T14:23:04.725Z,1014.9
2017-07-04T14:25:36.453Z,1014.9
2017-07-04T14:28:08.381Z,1014.8
2017-07-04T14:30:40.122Z,1014.8
2017-07-04T14:33:11.821Z,1014.8
2017-07-04T14:35:43.609Z,1014.8
2017-07-04T14:38:15.250Z,1014.7
2017-07-04T14:40:46.987Z,1014.7
2017-07-04T14:43:18.681Z,1014.7
2017-07-04T14:45:50.403Z,1014.7
2017-07-04T14:48:22.097Z,1014.7
2017-07-04T14:50:53.815Z,1014.8
2017-07-04T14:53:25.511Z,1014.8
2017-07-04T14:55:57.369Z,1014.7
2017-07-04T14:58:29.063Z,1014.7
2017-07-04T15:01:00.791Z,1014.7
2017-07-04T15:03:32.486Z,1014.7
2017-07-04T15:06:04.227Z,1014.7
2017-07-04T15:08:35.921Z,1014.7
2017-07-04T15:11:07.642Z,1014.7
2017-07-04T15:13:39.344Z,1014.6
2017-07-04T15:16:11.064Z,1014.7
2017-07-04T15:18:42.758Z,1014.7
2017-07-04T15:21:14.478Z,1014.6
2017-07-04T15:23:46.168Z,1014.6
2017-07-04T15:26:17.888Z,1014.6
2017-07-04T15:28:49.583Z,1014.5
2017-07-04T15:31:21.312Z,1014.5
2017-07-04T15:33:53.015Z,1014.5
2017-07-04T15:36:24.739Z,1014.5
2017-07-04T15:38:56.434Z,1014.5
2017-07-04T15:41:28.158Z,1014.4
2017-07-04T15:43:59.851Z,1014.4
2017-07-04T15:46:31.578Z,1014.4
2017-07-04T15:49:03.272Z,1014.4
2017-07-04T15:51:35.001Z,1014.3
2017-07-04T15:54:06.698Z,1014.3
2017-07-04T15:56:38.425Z,1014.3
2017-07-04T15:59:10.116Z,1014.2
2017-07-04T16:01:41.835Z,1014.2
2017-07-04T16:04:13.530Z,1014.2
2017-07-04T16:06:45.255Z,1014.2
2017-07-04T16:09:16.946Z,1014.2
2017-07-04T16:11:48.676Z,1014.2
2017-07-04T16:14:20.370Z,1014.3
2017-07-04T16:16:52.085Z,1014.2
2017-07-04T16:19:23.777Z,1014.2
2017-07-04T16:21:55.494Z,1014.1
2017-07-04T16:24:27.193Z,1014.2
2017-07-04T16:26:58.932Z,1014.2
2017-07-04T16:29:30.623Z,1014.2
2017-07-04T16:32:02.346Z,1014.1
2017-07-04T16:34:34.038Z,1014.1
2017-07-04T16:37:05.758Z,1014.1
2017-07-04T16:39:37.451Z,1014.1
2017-07-04T16:42:09.178Z,1014.1
2017-07-04T16:44:40.885Z,1014.0
2017-07-04T16:47:13.369Z,1014.1
2017-07-04T16:49:45.065Z,1014.1
2017-07-04T16:52:16.793Z,1014.1
2017-07-04T16:54:48.493Z,1014.1
2017-07-04T16:57:20.225Z,1014.0
2017-07-04T16:59:51.933Z,1014.0
2017-07-04T17:02:23.686Z,1014.0
2017-07-04T17:04:55.469Z,1014.0
2017-07-04T17:07:27.199Z,1014.0
2017-07-04T17:09:58.917Z,1014.0
2017-07-04T17:12:31.152Z,1014.0
2017-07-04T17:15:03.003Z,1014.0
2017-07-04T17:17:35.135Z,1014.0
2017-07-04T17:20:06.838Z,1014.0
2017-07-04T17:22:38.583Z,1014.1
2017-07-04T17:25:10.287Z,1014.0
2017-07-04T17:27:42.019Z,1014.0
2017-07-04T17:30:13.742Z,1014.0
2017-07-04T17:32:45.477Z,1014.0
2017-07-04T17:35:17.173Z,1014.0
2017-07-04T17:37:48.908Z,1014.0
2017-07-04T17:40:20.605Z,1014.0
2017-07-04T17:42:52.560Z,1014.0
2017-07-04T17:45:24.565Z,1013.9
2017-07-04T17:47:56.283Z,1013.9
2017-07-04T17:50:27.993Z,1013.9
2017-07-04T17:52:59.718Z,1013.8
2017-07-04T17:55:31.424Z,1013.7
2017-07-04T17:58:04.232Z,1013.8
2017-07-04T18:00:36.663Z,1013.8
2017-07-04T18:03:08.396Z,1013.7
2017-07-04T18:05:40.106Z,1013.7
2017-07-04T18:08:11.834Z,1013.7
2017-07-04T18:10:43.534Z,1013.7
2017-07-04T18:13:15.260Z,1013.7
2017-07-04T18:15:46.996Z,1013.7
2017-07-04T18:18:18.727Z,1013.7
2017-07-04T18:20:50.428Z,1013.7
2017-07-04T18:23:22.155Z,1013.7
2017-07-04T18:25:53.849Z,1013.7
2017-07-04T18:28:25.574Z,1013.7
2017-07-04T18:30:57.274Z,1013.6
2017-07-04T18:33:28.995Z,1013.6
2017-07-04T18:36:01.691Z,1013.7
2017-07-04T18:38:33.500Z,1013.7
2017-07-04T18:41:08.245Z,1013.7
2017-07-04T18:43:41.959Z,1013.7
2017-07-04T18:46:15.959Z,1013.8
2017-07-04T18:48:49.314Z,1013.9
2017-07-04T18:51:22.195Z,1013.8
2017-07-04T18:53:54.518Z,1013.7
2017-07-04T18:56:27.810Z,1013.7
2017-07-04T18:58:59.721Z,1013.7
2017-07-04T19:01:31.425Z,1013.6
2017-07-04T19:04:03.151Z,1013.7
2017-07-04T19:06:35.869Z,1013.7
2017-07-04T19:09:10.089Z,1013.7
2017-07-04T19:11:42.136Z,1013.7
2017-07-04T19:14:13.864Z,1013.7
2017-07-04T19:16:45.619Z,1013.7
2017-07-04T19:19:18.455Z,1013.7
2017-07-04T19:21:50.217Z,1013.7
2017-07-04T19:24:22.509Z,1013.6
2017-07-04T19:26:54.213Z,1013.6
2017-07-04T19:29:25.947Z,1013.7
2017-07-04T19:31:57.642Z,1013.7
2017-07-04T19:34:30.230Z,1013.7
2017-07-04T19:37:01.952Z,1013.7
2017-07-04T19:39:33.705Z,1013.8
2017-07-04T19:42:06.010Z,1013.8
2017-07-04T19:44:37.737Z,1013.9
2017-07-04T19:47:09.419Z,1013.9
2017-07-04T19:49:41.266Z,1014.0
2017-07-04T19:52:12.956Z,1014.0
2017-07-04T19:54:44.688Z,1014.0
2017-07-04T19:57:16.489Z,1014.0
2017-07-04T19:59:48.211Z,1013.9
2017-07-04T20:02:19.900Z,1013.9
2017-07-04T20:04:52.452Z,1013.9
2017-07-04T20:07:24.143Z,1014.0
2017-07-04T20:09:55.862Z,1013.9
2017-07-04T20:12:27.548Z,1013.9
2017-07-04T20:14:59.321Z,1013.9
2017-07-04T20:17:31.012Z,1014.0
2017-07-04T20:20:02.732Z,1013.9
2017-07-04T20:22:34.476Z,1013.9
2017-07-04T20:25:06.262Z,1013.9
2017-07-04T20:27:37.971Z,1014.0
2017-07-04T20:30:09.702Z,1014.0
2017-07-04T20:32:41.427Z,1013.9
2017-07-04T20:35:13.892Z,1014.0
2017-07-04T20:37:45.602Z,1014.0
2017-07-04T20:40:17.335Z,1013.9
2017-07-04T20:42:49.043Z,1013.9
2017-07-04T20:45:20.788Z,1013.9
2017-07-04T20:47:52.531Z,1014.0
2017-07-04T20:50:24.261Z,1013.9
2017-07-04T20:52:55.970Z,1013.9
2017-07-04T20:55:27.710Z,1013.9
2017-07-04T20:57:59.399Z,1013.9
2017-07-04T21:00:31.121Z,1013.9
2017-07-04T21:03:02.828Z,1013.9
2017-07-04T21:05:34.544Z,1013.9
2017-07-04T21:08:06.238Z,1013.9
2017-07-04T21:10:37.962Z,1013.9
2017-07-04T21:13:09.653Z,1013.9
2017-07-04T21:15:41.371Z,1013.9
2017-07-04T21:18:13.061Z,1013.9
2017-07-04T21:20:44.793Z,1013.9
2017-07-04T21:23:16.477Z,1013.8
2017-07-04T21:25:48.210Z,1013.9
2017-07-04T21:28:19.907Z,1013.9
2017-07-04T21:30:51.644Z,1013.9
2017-07-04T21:33:23.336Z,1013.9
2017-07-04T21:35:55.066Z,1013.8
2017-07-04T21:38:26.760Z,1013.9
2017-07-04T21:40:58.494Z,1013.8
2017-07-04T21:43:30.189Z,1013.9
2017-07-04T21:46:01.918Z,1013.8
2017-07-04T21:48:33.608Z,1013.8
2017-07-04T21:51:05.328Z,1013.8
2017-07-04T21:53:37.065Z,1013.8
2017-07-04T21:56:08.824Z,1013.8
2017-07-04T21:58:40.512Z,1013.8
2017-07-04T22:01:12.241Z,1013.7
2017-07-04T22:03:43.979Z,1013.7
2017-07-04T22:06:15.800Z,1013.7
2017-07-04T22:08:47.500Z,1013.7
2017-07-04T22:11:19.233Z,1013.7
2017-07-04T22:13:50.931Z,1013.7
2017-07-04T22:16:22.646Z,1013.7
2017-07-04T22:18:54.341Z,1013.7
2017-07-04T22:21:26.063Z,1013.7
2017-07-04T22:23:57.758Z,1013.7
2017-07-04T22:26:29.478Z,1013.6
2017-07-04T22:29:01.181Z,1013.6
2017-07-04T22:31:32.904Z,1013.7
2017-07-04T22:34:04.597Z,1013.7
2017-07-04T22:36:36.320Z,1013.7
2017-07-04T22:39:08.012Z,1013.7
2017-07-04T22:41:39.740Z,1013.6
2017-07-04T22:44:11.428Z,1013.7
2017-07-04T22:46:43.140Z,1013.7
2017-07-04T22:49:14.826Z,1013.6
2017-07-04T22:51:46.543Z,1013.6
2017-07-04T22:54:18.230Z,1013.6
2017-07-04T22:56:49.953Z,1013.6
2017-07-04T22:59:21.650Z,1013.6
2017-07-04T23:01:53.367Z,1013.5
2017-07-04T23:04:25.055Z,1013.5
2017-07-04T23:06:56.775Z,1013.5
2017-07-04T23:09:28.476Z,1013.5
2017-07-04T23:12:00.202Z,1013.5
2017-07-04T23:14:31.892Z,1013.5
2017-07-04T23:17:03.612Z,1013.5
2017-07-04T23:19:35.302Z,1013.4
2017-07-04T23:22:07.025Z,1013.4
2017-07-04T23:24:38.721Z,1013.4
2017-07-04T23:27:10.453Z,1013.4
2017-07-04T23:29:42.148Z,1013.3
2017-07-04T23:32:13.883Z,1013.3
2017-07-04T23:34:45.587Z,1013.3
2017-07-04T23:37:17.299Z,1013.3
2017-07-04T23:39:48.995Z,1013.3
2017-07-04T23:42:20.714Z,1013.3
2017-07-04T23:44:52.405Z,1013.3
2017-07-04T23:47:24.132Z,1013.2
2017-07-04T23:49:55.829Z,1013.3
2017-07-04T23:52:27.549Z,1013.2
2017-07-04T23:54:59.255Z,1013.2
2017-07-04T23:57:30.995Z,1013.2
